Time;durP1;ratioP1;P1;durP2;ratioP2;P2;SDS_P1;SDS_P2;PMS_P1;PMS_P2;Temp;Humidity;BMP_temperature;BMP_pressure;BME280_temperature;BME280_humidity;BME280_pressure;Samples;Min_cycle;Max_cycle;Signal;HPM_P1;HPM_P2
2022/05/22 00:00:40;;;;;;;15.23;5.25;;;;;;;10.27;100.00;101999.03;5022952;28;20073;-88
2022/05/22 00:03:08;;;;;;;16.27;5.40;;;;;;;10.25;100.00;101984.94;5005192;28;20082;-87
2022/05/22 00:05:33;;;;;;;19.45;6.57;;;;;;;10.24;100.00;101977.91;5017048;28;20080;-87
2022/05/22 00:07:59;;;;;;;16.85;6.22;;;;;;;10.23;100.00;101963.81;5031533;28;20373;-87
2022/05/22 00:10:24;;;;;;;15.63;6.78;;;;;;;10.21;100.00;101962.97;5027365;28;20077;-87
2022/05/22 00:12:50;;;;;;;16.02;7.22;;;;;;;10.17;100.00;101951.59;5040306;28;20396;-87
2022/05/22 00:15:16;;;;;;;15.80;6.63;;;;;;;10.15;100.00;101961.38;5031921;28;20387;-83
2022/05/22 00:17:42;;;;;;;17.83;7.07;;;;;;;10.14;100.00;101958.72;5038181;28;20159;-83
2022/05/22 00:20:09;;;;;;;14.02;7.00;;;;;;;10.14;100.00;101961.38;5034395;28;20021;-83
2022/05/22 00:22:35;;;;;;;15.55;7.10;;;;;;;10.13;100.00;101971.09;5054750;28;20388;-83
2022/05/22 00:25:02;;;;;;;19.63;6.85;;;;;;;10.14;100.00;101959.63;5058188;28;20079;-83
2022/05/22 00:27:27;;;;;;;17.55;6.90;;;;;;;10.14;100.00;101959.63;5041940;28;20028;-85
2022/05/22 00:29:53;;;;;;;18.35;7.30;;;;;;;10.14;100.00;101956.09;5018141;28;20045;-83
2022/05/22 00:32:18;;;;;;;17.67;7.43;;;;;;;10.11;100.00;101962.31;5002235;28;20494;-83
2022/05/22 00:34:44;;;;;;;20.83;8.35;;;;;;;10.12;100.00;101963.22;5029376;28;20055;-83
2022/05/22 00:37:12;;;;;;;15.05;7.05;;;;;;;10.13;100.00;101967.59;5038566;28;20046;-83
2022/05/22 00:39:37;;;;;;;16.70;6.85;;;;;;;10.13;100.00;101971.09;5008559;28;20024;-83
2022/05/22 00:42:13;;;;;;;13.95;7.03;;;;;;;10.11;100.00;101958.81;5042869;28;20044;-82
2022/05/22 00:44:38;;;;;;;13.90;6.65;;;;;;;10.09;100.00;101964.16;5041227;28;20472;-83
2022/05/22 00:47:04;;;;;;;13.98;7.43;;;;;;;10.03;100.00;101966.09;5049015;28;20025;-88
2022/05/22 00:49:33;;;;;;;13.93;6.43;;;;;;;10.02;100.00;101969.63;5041450;28;20131;-82
2022/05/22 00:52:39;;;;;;;19.08;7.18;;;;;;;9.97;100.00;101957.41;5043836;28;20029;-83
2022/05/22 00:55:11;;;;;;;22.50;7.60;;;;;;;9.98;100.00;101947.66;5050623;28;20025;-85
2022/05/22 00:57:44;;;;;;;14.63;7.25;;;;;;;10.00;100.00;101943.22;5040031;28;20055;-83
2022/05/22 01:00:16;;;;;;;17.58;7.28;;;;;;;9.99;100.00;101952.06;5066076;28;20025;-85
2022/05/22 01:05:27;;;;;;;16.48;6.90;;;;;;;9.96;100.00;101946.81;5066123;28;20063;-82
2022/05/22 01:07:52;;;;;;;25.33;8.05;;;;;;;9.97;100.00;101951.22;5063538;28;20037;-86
2022/05/22 01:10:19;;;;;;;16.95;7.43;;;;;;;9.99;100.00;101955.56;5052920;28;20029;-87
2022/05/22 01:12:46;;;;;;;20.23;7.82;;;;;;;10.05;100.00;101956.31;5039558;28;20464;-87
2022/05/22 01:15:14;;;;;;;18.65;7.97;;;;;;;10.07;100.00;101960.66;5022788;28;20131;-87
2022/05/22 01:17:42;;;;;;;17.85;7.45;;;;;;;10.11;100.00;101959.69;5022536;28;20098;-87
2022/05/22 01:20:08;;;;;;;17.02;8.13;;;;;;;10.15;100.00;101960.47;5038785;28;20392;-86
2022/05/22 01:22:33;;;;;;;22.48;7.97;;;;;;;10.14;100.00;101951.69;5038012;28;20027;-88
2022/05/22 01:24:59;;;;;;;21.70;8.30;;;;;;;10.13;100.00;101949.06;5002334;28;20029;-87
2022/05/22 01:27:26;;;;;;;19.55;8.43;;;;;;;10.12;100.00;101940.25;5035105;28;20563;-87
2022/05/22 01:30:04;;;;;;;18.70;8.00;;;;;;;10.11;100.00;101933.22;5038217;28;20021;-87
2022/05/22 01:32:33;;;;;;;16.83;7.80;;;;;;;10.06;100.00;101940.41;5038158;28;20468;-87
2022/05/22 01:34:59;;;;;;;17.25;7.25;;;;;;;9.97;100.00;101932.69;5021549;28;20028;-87
2022/05/22 01:37:24;;;;;;;16.45;7.60;;;;;;;9.89;100.00;101929.38;5021589;28;20366;-87
2022/05/22 01:39:51;;;;;;;15.07;7.15;;;;;;;9.87;100.00;101917.94;5005236;28;20017;-86
2022/05/22 01:42:16;;;;;;;19.75;7.35;;;;;;;9.86;100.00;101918.84;5021604;28;20583;-86
2022/05/22 01:44:42;;;;;;;15.32;7.60;;;;;;;9.87;100.00;101920.59;5002373;28;20041;-87
2022/05/22 01:47:07;;;;;;;19.88;7.22;;;;;;;9.88;100.00;101911.75;5034852;28;20039;-87
2022/05/22 01:49:32;;;;;;;16.08;7.38;;;;;;;9.87;100.00;101908.22;5001691;28;20508;-87
2022/05/22 01:51:59;;;;;;;17.20;7.30;;;;;;;9.84;100.00;101903.88;5037640;28;20037;-87
2022/05/22 01:54:24;;;;;;;16.92;7.30;;;;;;;9.81;100.00;101903.13;5006387;28;20101;-87
2022/05/22 01:56:49;;;;;;;17.88;7.43;;;;;;;9.79;100.00;101905.78;5028362;28;20476;-87
2022/05/22 01:59:15;;;;;;;20.92;8.57;;;;;;;9.82;100.00;101904.81;5029754;28;20092;-87
2022/05/22 02:01:40;;;;;;;23.30;7.85;;;;;;;9.82;100.00;101892.50;5026231;28;20067;-86
2022/05/22 02:04:06;;;;;;;15.88;7.38;;;;;;;9.88;100.00;101898.53;5022733;28;20120;-87
2022/05/22 02:06:31;;;;;;;16.60;7.20;;;;;;;9.92;100.00;101885.16;5039747;28;20017;-88
2022/05/22 02:08:57;;;;;;;20.95;8.00;;;;;;;9.92;100.00;101893.09;5039946;28;20041;-89
2022/05/22 02:11:23;;;;;;;17.55;7.68;;;;;;;9.90;100.00;101896.69;5021463;28;20024;-88
2022/05/22 02:13:49;;;;;;;20.55;7.50;;;;;;;9.84;100.00;101887.16;5038007;28;20082;-88
2022/05/22 02:16:15;;;;;;;20.15;7.85;;;;;;;9.77;100.00;101891.72;5037105;28;20029;-88
2022/05/22 02:18:41;;;;;;;15.45;6.93;;;;;;;9.72;100.00;101890.09;5020773;28;20040;-88
2022/05/22 02:21:07;;;;;;;16.00;7.38;;;;;;;9.68;100.00;101892.81;5020719;28;20056;-88
2022/05/22 02:23:35;;;;;;;16.05;6.82;;;;;;;9.66;100.00;101885.84;5036488;28;20035;-88
2022/05/22 02:26:01;;;;;;;17.95;7.20;;;;;;;9.62;100.00;101881.53;5020569;28;20025;-88
2022/05/22 02:28:27;;;;;;;13.38;7.10;;;;;;;9.61;100.00;101874.50;5037072;28;20110;-88
2022/05/22 02:30:57;;;;;;;13.98;7.45;;;;;;;9.60;100.00;101862.16;5037367;28;20051;-88
2022/05/22 02:33:23;;;;;;;14.02;6.97;;;;;;;9.61;100.00;101864.78;5035531;28;20492;-88
2022/05/22 02:35:51;;;;;;;18.10;7.10;;;;;;;9.63;100.00;101873.56;5036608;28;20024;-88
2022/05/22 02:38:16;;;;;;;16.65;7.35;;;;;;;9.66;100.00;101869.97;5032136;28;20025;-88
2022/05/22 02:40:42;;;;;;;18.35;7.45;;;;;;;9.66;100.00;101864.66;5033324;28;20075;-88
2022/05/22 02:43:09;;;;;;;14.57;7.32;;;;;;;9.61;100.00;101863.91;5021336;28;20040;-89
2022/05/22 02:45:38;;;;;;;15.55;7.05;;;;;;;9.57;100.00;101863.13;5036202;28;20393;-88
2022/05/22 02:48:05;;;;;;;14.07;7.03;;;;;;;9.53;100.00;101872.03;5035514;28;20059;-88
2022/05/22 02:50:32;;;;;;;17.63;7.40;;;;;;;9.50;100.00;101867.69;5020465;28;20104;-88
2022/05/22 02:52:57;;;;;;;15.30;7.55;;;;;;;9.47;100.00;101857.16;5020066;28;20040;-88
2022/05/22 02:55:23;;;;;;;21.83;8.27;;;;;;;9.49;100.00;101862.44;5000950;28;20116;-88
2022/05/22 02:57:49;;;;;;;15.63;7.22;;;;;;;9.50;100.00;101861.50;5029289;28;20469;-87
2022/05/22 03:00:20;;;;;;;15.65;7.35;;;;;;;9.53;100.00;101864.09;5017203;28;20039;-88
2022/05/22 03:02:45;;;;;;;15.05;6.97;;;;;;;9.50;100.00;101870.34;5035261;28;20025;-88
2022/05/22 03:05:12;;;;;;;16.30;6.95;;;;;;;9.46;100.00;101858.09;5017318;28;20035;-87
2022/05/22 03:07:38;;;;;;;13.73;6.68;;;;;;;9.42;100.00;101856.41;5015752;28;20059;-88
2022/05/22 03:10:07;;;;;;;17.25;6.80;;;;;;;9.41;100.00;101853.81;5037468;28;20116;-88
2022/05/22 03:12:33;;;;;;;14.95;6.80;;;;;;;9.39;100.00;101859.13;5036971;28;20025;-87
2022/05/22 03:14:59;;;;;;;17.38;7.20;;;;;;;9.40;100.00;101847.66;5036868;28;20099;-88
2022/05/22 03:17:25;;;;;;;20.80;7.07;;;;;;;9.37;100.00;101845.06;5037220;28;20116;-88
2022/05/22 03:19:51;;;;;;;14.70;7.15;;;;;;;9.35;100.00;101855.69;5044047;28;20032;-85
2022/05/22 03:22:18;;;;;;;15.20;7.32;;;;;;;9.31;100.00;101858.44;5065894;28;20113;-88
2022/05/22 03:24:43;;;;;;;14.73;6.63;;;;;;;9.27;100.00;101851.47;5054594;28;20012;-88
2022/05/22 03:27:12;;;;;;;14.05;7.20;;;;;;;9.26;100.00;101855.03;5050569;28;20033;-87
2022/05/22 03:29:39;;;;;;;15.50;6.90;;;;;;;9.23;100.00;101845.41;5074775;28;20058;-88
2022/05/22 03:32:07;;;;;;;13.27;6.93;;;;;;;9.23;100.00;101839.25;5044256;28;20045;-88
2022/05/22 03:34:32;;;;;;;14.07;6.70;;;;;;;9.22;100.00;101830.47;5038387;28;20032;-86
2022/05/22 03:36:58;;;;;;;13.70;6.57;;;;;;;9.23;100.00;101836.63;5018073;28;20029;-87
2022/05/22 03:39:24;;;;;;;11.80;6.47;;;;;;;9.23;100.00;101832.19;5017968;28;20032;-89
2022/05/22 03:41:50;;;;;;;17.08;7.15;;;;;;;9.24;100.00;101836.56;5015021;28;20397;-86
2022/05/22 03:44:15;;;;;;;13.50;6.47;;;;;;;9.24;100.00;101838.34;5033104;28;20040;-87
2022/05/22 03:46:41;;;;;;;19.15;7.63;;;;;;;9.27;100.00;101827.69;5035665;28;20104;-87
2022/05/22 03:49:07;;;;;;;16.67;7.20;;;;;;;9.30;100.00;101822.34;5018731;28;20052;-87
2022/05/22 03:51:32;;;;;;;13.82;7.30;;;;;;;9.32;100.00;101818.78;5002171;28;20021;-88
2022/05/22 03:53:59;;;;;;;19.40;7.95;;;;;;;9.37;100.00;101817.78;5002504;28;20032;-88
2022/05/22 03:56:24;;;;;;;14.75;7.28;;;;;;;9.41;100.00;101822.09;5018509;28;20488;-88
2022/05/22 03:58:50;;;;;;;15.05;7.28;;;;;;;9.43;100.00;101815.00;5035159;28;20025;-88
2022/05/22 04:01:15;;;;;;;18.13;7.60;;;;;;;9.47;100.00;101821.94;5016918;28;20025;-87
2022/05/22 04:03:41;;;;;;;14.30;7.00;;;;;;;9.55;100.00;101821.75;5035509;28;20028;-88
2022/05/22 04:06:09;;;;;;;20.65;7.70;;;;;;;9.62;100.00;101810.97;5012125;28;20028;-87
2022/05/22 04:08:38;;;;;;;24.08;8.80;;;;;;;9.78;100.00;101810.59;5034014;28;20035;-88
2022/05/22 04:11:16;;;;;;;22.63;8.00;;;;;;;9.91;100.00;101814.66;5017665;28;20515;-88
2022/05/22 04:13:42;;;;;;;16.17;7.60;;;;;;;9.98;100.00;101818.00;5031302;28;20065;-89
2022/05/22 04:16:07;;;;;;;17.55;7.93;;;;;;;10.08;100.00;101816.00;5034427;28;20072;-88
2022/05/22 04:18:33;;;;;;;18.00;7.05;;;;;;;10.19;100.00;101805.94;5033306;28;20163;-88
2022/05/22 04:21:00;;;;;;;16.90;6.57;;;;;;;10.31;100.00;101807.41;5035100;28;20059;-89
2022/05/22 04:26:11;;;;;;;13.98;6.60;;;;;;;10.41;100.00;101803.63;5033345;28;20068;-88
2022/05/22 04:28:36;;;;;;;13.13;6.18;;;;;;;10.36;100.00;101804.66;5027389;28;20037;-89
2022/05/22 04:31:06;;;;;;;15.80;6.20;;;;;;;10.33;100.00;101803.81;5002301;28;20534;-88
2022/05/22 04:33:31;;;;;;;14.82;6.97;;;;;;;10.29;100.00;101809.22;5013331;28;20476;-88
2022/05/22 04:35:58;;;;;;;17.58;6.18;;;;;;;10.28;100.00;101808.38;5031018;28;20036;-88
2022/05/22 04:38:23;;;;;;;17.15;6.85;;;;;;;10.28;100.00;101804.84;5049564;28;20033;-88
2022/05/22 04:40:57;;;;;;;14.18;6.03;;;;;;;10.30;100.00;101809.19;5002231;28;20499;-88
2022/05/22 04:43:24;;;;;;;14.38;6.15;;;;;;;10.33;100.00;101805.56;5053232;28;20052;-88
2022/05/22 04:45:50;;;;;;;19.23;6.57;;;;;;;10.35;100.00;101811.69;5035307;28;20025;-88
2022/05/22 04:48:17;;;;;;;15.00;6.68;;;;;;;10.37;100.00;101806.38;5035158;28;20132;-88
2022/05/22 04:50:46;;;;;;;14.07;6.15;;;;;;;10.43;100.00;101804.44;5027037;28;20013;-88
2022/05/22 04:53:12;;;;;;;19.80;5.97;;;;;;;10.48;100.00;101801.66;5061120;28;20023;-88
2022/05/22 04:55:37;;;;;;;15.35;5.72;;;;;;;10.53;100.00;101791.78;5076106;28;20055;-87
2022/05/22 04:58:02;;;;;;;13.93;5.78;;;;;;;10.64;100.00;101794.16;5062406;28;20044;-87
2022/05/22 05:00:29;;;;;;;16.35;6.65;;;;;;;10.73;100.00;101795.63;5027432;28;20051;-87
2022/05/22 05:02:54;;;;;;;16.08;6.30;;;;;;;10.75;100.00;101796.47;5042242;28;20029;-87
2022/05/22 05:05:20;;;;;;;12.88;5.57;;;;;;;10.85;100.00;101805.00;5025961;28;20403;-87
2022/05/22 05:07:45;;;;;;;14.52;5.75;;;;;;;10.91;100.00;101802.19;5057686;28;20036;-87
2022/05/22 05:10:11;;;;;;;22.33;7.13;;;;;;;11.00;100.00;101796.56;5057671;28;20026;-87
2022/05/22 05:12:38;;;;;;;19.38;5.75;;;;;;;11.09;100.00;101792.78;5022265;28;20028;-89
2022/05/22 05:15:06;;;;;;;12.35;5.20;;;;;;;11.19;100.00;101796.88;5026881;28;20025;-88
2022/05/22 05:17:50;;;;;;;12.95;5.88;;;;;;;11.20;100.00;101795.94;5045312;28;20032;-88
2022/05/22 05:20:18;;;;;;;16.98;5.32;;;;;;;11.20;100.00;101800.38;5024577;28;20035;-88
2022/05/22 05:22:44;;;;;;;15.98;5.63;;;;;;;11.27;100.00;101794.81;5038325;28;20025;-88
2022/05/22 05:25:11;;;;;;;13.05;5.63;;;;;;;11.40;100.00;101802.38;5041481;28;20123;-88
2022/05/22 05:27:37;;;;;;;17.63;7.13;;;;;;;11.53;100.00;101805.50;5058106;28;20040;-88
2022/05/22 05:30:04;;;;;;;13.75;6.72;;;;;;;11.60;100.00;101805.25;5032121;28;20488;-88
2022/05/22 05:32:29;;;;;;;16.38;7.20;;;;;;;11.74;100.00;101812.72;5040551;28;20061;-88
2022/05/22 05:34:57;;;;;;;16.75;6.90;;;;;;;11.82;100.00;101815.13;5055614;28;20056;-88
2022/05/22 05:37:23;;;;;;;12.75;5.85;;;;;;;11.89;100.00;101818.41;5038459;28;20025;-87
2022/05/22 05:39:49;;;;;;;10.40;5.93;;;;;;;11.96;100.00;101814.69;5037855;28;20499;-88
2022/05/22 05:42:14;;;;;;;11.77;5.07;;;;;;;12.06;100.00;101813.44;5037486;28;20025;-87
2022/05/22 05:44:40;;;;;;;16.60;5.78;;;;;;;12.08;100.00;101806.25;5025598;28;20033;-88
2022/05/22 05:47:08;;;;;;;14.27;5.20;;;;;;;12.17;100.00;101812.19;5064994;28;20028;-88
2022/05/22 05:49:33;;;;;;;11.70;5.00;;;;;;;12.21;100.00;101814.69;5043114;28;20050;-88
2022/05/22 05:52:01;;;;;;;12.43;5.43;;;;;;;12.27;100.00;101806.47;5056310;28;20015;-88
2022/05/22 05:54:29;;;;;;;13.18;5.03;;;;;;;12.38;100.00;101808.75;5034402;28;20133;-88
2022/05/22 05:56:54;;;;;;;12.18;5.57;;;;;;;12.45;100.00;101817.34;5030950;28;20060;-88
2022/05/22 05:59:20;;;;;;;13.70;5.65;;;;;;;12.51;100.00;101814.47;5001179;28;20488;-87
2022/05/22 06:01:45;;;;;;;17.00;5.60;;;;;;;12.62;100.00;101817.59;5033879;28;20033;-87
2022/05/22 06:04:10;;;;;;;12.20;5.60;;;;;;;12.72;100.00;101809.25;5018701;28;20021;-88
2022/05/22 06:06:36;;;;;;;14.10;5.88;;;;;;;12.83;100.00;101798.22;5016885;28;20156;-88
2022/05/22 06:09:02;;;;;;;12.77;5.15;;;;;;;12.91;100.00;101801.44;5020465;28;20052;-88
2022/05/22 06:11:28;;;;;;;13.43;5.20;;;;;;;12.96;100.00;101796.81;5025366;28;20381;-88
2022/05/22 06:13:54;;;;;;;12.55;6.20;;;;;;;12.99;100.00;101801.13;5018181;28;20104;-88
2022/05/22 06:16:19;;;;;;;14.73;5.82;;;;;;;13.07;100.00;101805.22;5032770;28;20087;-88
2022/05/22 06:18:47;;;;;;;15.07;6.90;;;;;;;13.15;100.00;101790.78;5034255;28;20445;-88
2022/05/22 06:21:15;;;;;;;16.27;6.53;;;;;;;13.25;100.00;101797.44;5015355;28;20033;-89
2022/05/22 06:23:40;;;;;;;14.10;7.05;;;;;;;13.31;100.00;101783.88;5033391;28;20022;-88
2022/05/22 06:26:07;;;;;;;18.48;7.30;;;;;;;13.38;100.00;101797.84;5031781;28;20040;-89
2022/05/22 06:28:34;;;;;;;13.68;6.07;;;;;;;13.48;100.00;101815.16;5034259;28;20079;-88
2022/05/22 06:30:59;;;;;;;14.73;6.38;;;;;;;13.58;100.00;101808.50;5019727;28;20056;-89
2022/05/22 06:33:24;;;;;;;15.45;6.40;;;;;;;13.71;100.00;101811.50;5022164;28;20057;-89
2022/05/22 06:35:50;;;;;;;14.70;6.07;;;;;;;13.81;100.00;101809.34;4995165;28;20545;-89
2022/05/22 06:41:06;;;;;;;12.45;5.20;;;;;;;14.01;99.08;101812.91;5033008;28;20062;-88
2022/05/22 06:43:31;;;;;;;12.30;5.20;;;;;;;14.14;98.72;101811.44;5031314;28;20033;-88
2022/05/22 06:45:57;;;;;;;12.35;4.45;;;;;;;14.31;98.14;101810.69;4998252;28;20038;-89
2022/05/22 06:48:22;;;;;;;14.98;4.78;;;;;;;14.46;93.67;101808.25;5000066;28;20046;-88
2022/05/22 06:50:47;;;;;;;10.13;4.45;;;;;;;14.59;94.03;101810.31;5002379;28;20049;-88
2022/05/22 06:53:13;;;;;;;13.18;4.70;;;;;;;14.66;93.63;101799.38;5003559;28;20040;-88
2022/05/22 06:55:40;;;;;;;9.50;4.07;;;;;;;14.75;92.65;101802.47;5054383;28;20025;-88
2022/05/22 06:58:06;;;;;;;11.52;4.25;;;;;;;14.77;91.19;101815.75;5019488;28;20116;-87
2022/05/22 07:00:32;;;;;;;10.00;4.20;;;;;;;14.82;91.01;101818.19;5054184;28;20100;-87
2022/05/22 07:02:57;;;;;;;10.82;4.20;;;;;;;14.82;88.96;101811.06;5035842;28;20066;-86
2022/05/22 07:05:23;;;;;;;10.77;4.20;;;;;;;14.81;89.55;101816.44;5016056;28;20095;-87
2022/05/22 07:07:48;;;;;;;14.35;4.30;;;;;;;14.86;89.33;101817.09;5035629;28;20017;-87
2022/05/22 07:10:14;;;;;;;10.35;3.90;;;;;;;14.94;89.29;101814.94;5052275;28;20033;-86
2022/05/22 07:12:40;;;;;;;15.15;4.47;;;;;;;14.93;88.73;101799.88;5052497;28;20040;-88
2022/05/22 07:15:07;;;;;;;13.77;4.60;;;;;;;15.03;90.22;101800.31;5052561;28;20416;-87
2022/05/22 07:17:33;;;;;;;9.38;3.67;;;;;;;15.17;90.43;101791.63;5035943;28;20021;-86
2022/05/22 07:19:59;;;;;;;12.00;4.32;;;;;;;15.24;87.03;101791.25;5035204;28;20017;-87
2022/05/22 07:22:24;;;;;;;11.55;4.22;;;;;;;15.26;86.26;101787.66;5033570;28;20075;-86
2022/05/22 07:24:51;;;;;;;12.77;4.22;;;;;;;15.27;86.56;101797.38;5017834;28;20025;-86
2022/05/22 07:27:17;;;;;;;16.33;4.60;;;;;;;15.36;86.73;101804.94;5052526;28;20021;-86
2022/05/22 07:29:42;;;;;;;11.48;3.55;;;;;;;15.42;85.18;101798.41;5053311;28;20028;-87
2022/05/22 07:32:08;;;;;;;10.80;3.78;;;;;;;15.46;84.03;101798.19;5018727;28;20033;-87
2022/05/22 07:34:34;;;;;;;9.77;3.75;;;;;;;15.55;83.51;101795.06;5002942;28;20029;-87
2022/05/22 07:37:06;;;;;;;12.93;4.07;;;;;;;15.61;83.36;101798.34;5035771;28;20396;-87
2022/05/22 07:39:32;;;;;;;10.57;3.95;;;;;;;15.57;82.54;101787.84;5036982;28;20072;-86
2022/05/22 07:41:58;;;;;;;13.75;3.72;;;;;;;15.61;81.35;101799.22;5035645;28;20492;-86
2022/05/22 07:44:42;;;;;;;14.63;4.30;;;;;;;15.64;81.98;101785.72;5036100;28;20112;-86
2022/05/22 07:47:07;;;;;;;12.00;4.20;;;;;;;15.66;81.74;101782.97;5018721;28;20024;-86
2022/05/22 07:52:18;;;;;;;9.07;3.50;;;;;;;15.87;80.85;101778.38;5055681;28;20115;-85
2022/05/22 07:54:43;;;;;;;13.10;4.05;;;;;;;15.95;80.85;101767.28;5036273;28;20017;-87
2022/05/22 07:57:09;;;;;;;10.15;3.30;;;;;;;16.09;79.87;101767.41;5021241;28;20072;-87
2022/05/22 07:59:36;;;;;;;11.25;4.40;;;;;;;16.16;79.39;101767.94;5002757;28;20104;-87
2022/05/22 08:02:03;;;;;;;12.50;4.80;;;;;;;16.20;80.54;101765.03;5019260;28;20037;-86
2022/05/22 08:04:29;;;;;;;9.77;3.90;;;;;;;16.33;79.79;101767.00;5036253;28;20033;-87
2022/05/22 08:06:55;;;;;;;11.73;4.43;;;;;;;16.47;79.72;101760.91;5019022;28;20028;-87
2022/05/22 08:09:20;;;;;;;10.88;4.35;;;;;;;16.58;79.42;101757.66;5036297;28;20115;-87
2022/05/22 08:11:45;;;;;;;11.70;4.00;;;;;;;16.65;79.49;101753.66;5043990;28;20029;-83
2022/05/22 08:14:11;;;;;;;10.80;3.60;;;;;;;16.69;75.16;101739.22;5022646;28;20128;-84
2022/05/22 08:16:37;;;;;;;11.43;3.95;;;;;;;16.78;75.99;101752.06;5029959;28;20033;-84
2022/05/22 08:19:03;;;;;;;9.75;3.50;;;;;;;16.96;75.45;101744.81;5036983;28;20033;-85
2022/05/22 08:21:29;;;;;;;10.85;3.25;;;;;;;17.14;72.68;101745.56;5001842;28;20079;-86
2022/05/22 08:23:54;;;;;;;12.32;3.17;;;;;;;17.32;70.87;101743.63;5034451;28;20033;-86
2022/05/22 08:26:19;;;;;;;11.52;3.30;;;;;;;17.33;67.68;101744.50;5002413;28;20123;-86
2022/05/22 08:28:45;;;;;;;9.60;2.75;;;;;;;17.44;66.57;101742.06;5034386;28;20472;-86
2022/05/22 08:31:11;;;;;;;7.25;2.28;;;;;;;17.46;60.80;101739.28;5036100;28;20025;-87
2022/05/22 08:33:36;;;;;;;8.70;3.15;;;;;;;17.53;65.32;101736.13;5016320;28;20033;-86
2022/05/22 08:36:03;;;;;;;8.27;2.50;;;;;;;17.66;66.45;101730.03;5035881;28;20070;-86
2022/05/22 08:38:29;;;;;;;7.30;2.75;;;;;;;17.93;62.72;101729.28;5038690;28;20543;-87
2022/05/22 08:41:21;;;;;;;8.52;3.25;;;;;;;18.64;62.92;101727.53;5038310;28;20066;-87
2022/05/22 08:43:52;;;;;;;11.57;3.47;;;;;;;20.52;59.39;101723.72;5018320;28;20404;-87
2022/05/22 08:46:33;;;;;;;6.78;2.90;;;;;;;22.04;54.54;101723.94;5038585;28;20029;-87
2022/05/22 08:49:01;;;;;;;;;;;;;;;23.07;47.00;101707.44;5035254;28;20497;-86
2022/05/22 08:51:35;;;;;;;8.18;3.42;;;;;;;23.69;45.71;101712.16;5036332;28;19916;-86
2022/05/22 08:54:29;;;;;;;9.25;3.90;;;;;;;23.96;42.09;101710.75;5034494;28;20025;-87
2022/05/22 08:59:45;;;;;;;12.45;3.90;;;;;;;23.32;43.64;101709.94;5036278;28;20072;-87
2022/05/22 09:02:38;;;;;;;9.77;3.50;;;;;;;23.60;42.48;101704.84;5019022;28;20037;-87
2022/05/22 09:05:30;;;;;;;19.83;3.72;;;;;;;23.86;40.50;101707.97;5034927;28;20025;-88
2022/05/22 09:08:08;;;;;;;9.07;3.13;;;;;;;23.52;39.05;101717.16;5031348;28;20537;-88
2022/05/22 09:10:55;;;;;;;8.27;3.30;;;;;;;23.75;39.75;101697.22;5032340;28;20033;-91
2022/05/22 09:13:39;;;;;;;5.22;2.70;;;;;;;24.32;40.88;101684.97;5036337;28;20029;-89
2022/05/22 09:16:26;;;;;;;9.00;2.40;;;;;;;24.15;37.35;101693.75;5036219;28;20075;-89
2022/05/22 09:19:10;;;;;;;9.20;2.47;;;;;;;24.52;36.27;101693.13;5036265;28;20021;-88
2022/05/22 09:21:42;;;;;;;11.98;2.90;;;;;;;24.88;34.28;101682.63;5042330;28;20397;-91
2022/05/22 09:24:18;;;;;;;10.23;2.60;;;;;;;25.00;36.44;101681.50;5035210;28;20108;-88
2022/05/22 09:27:02;;;;;;;8.02;2.90;;;;;;;25.30;36.64;101678.75;5035304;28;20021;-88
2022/05/22 09:29:46;;;;;;;7.22;2.92;;;;;;;25.30;35.74;101681.47;5015311;28;20029;-89
2022/05/22 09:32:20;;;;;;;8.73;3.22;;;;;;;24.90;36.28;101669.81;5016178;28;20037;-89
2022/05/22 09:35:13;;;;;;;10.55;2.70;;;;;;;25.42;37.22;101669.47;5033650;28;20067;-89
2022/05/22 09:38:28;;;;;;;12.40;3.35;;;;;;;25.22;36.93;101676.78;5034171;28;20057;-83
2022/05/22 09:41:13;;;;;;;14.85;2.92;;;;;;;25.61;36.42;101676.72;5020757;28;20126;-83
2022/05/22 09:43:48;;;;;;;10.30;2.88;;;;;;;25.52;36.58;101670.34;5033778;28;20033;-82
2022/05/22 09:46:17;;;;;;;12.43;3.10;;;;;;;25.88;34.51;101668.78;5047129;28;20395;-82
2022/05/22 09:49:22;;;;;;;17.88;3.08;;;;;;;26.01;34.74;101663.84;5053492;28;20045;-82
2022/05/22 09:52:22;;;;;;;7.22;2.45;;;;;;;25.60;35.20;101671.44;5041725;28;20039;-82
2022/05/22 09:55:09;;;;;;;6.38;2.70;;;;;;;25.37;34.43;101669.06;5001655;28;20038;-88
2022/05/22 09:57:51;;;;;;;6.80;2.70;;;;;;;24.81;33.55;101666.09;5035348;28;20026;-87
2022/05/22 10:00:45;;;;;;;8.57;2.28;;;;;;;24.77;34.22;101671.94;5034716;28;20035;-87
2022/05/22 10:03:41;;;;;;;16.52;3.08;;;;;;;25.05;35.54;101667.50;5002866;28;20041;-87
2022/05/22 10:06:23;;;;;;;7.72;2.53;;;;;;;24.82;33.76;101666.94;5034201;28;20033;-87
2022/05/22 10:09:06;;;;;;;6.68;2.50;;;;;;;24.80;36.74;101663.53;5035092;28;20116;-87
2022/05/22 10:11:55;;;;;;;8.20;2.50;;;;;;;25.44;34.31;101655.81;5019757;28;20044;-87
2022/05/22 10:14:36;;;;;;;7.40;2.65;;;;;;;25.85;34.27;101659.06;5034825;28;20029;-88
2022/05/22 10:17:35;;;;;;;6.57;2.35;;;;;;;25.70;32.15;101655.16;5034344;28;20116;-87
2022/05/22 10:20:38;;;;;;;9.35;2.20;;;;;;;25.65;32.19;101655.56;5032048;28;20037;-88
2022/05/22 10:23:18;;;;;;;8.75;2.28;;;;;;;25.55;32.87;101642.06;5032527;28;20366;-86
2022/05/22 10:26:04;;;;;;;8.02;2.47;;;;;;;25.62;32.71;101651.31;5054204;28;20032;-87
2022/05/22 10:28:36;;;;;;;11.15;2.58;;;;;;;25.42;33.44;101649.66;5038057;28;20380;-86
2022/05/22 10:31:19;;;;;;;7.78;2.95;;;;;;;25.88;32.22;101634.34;5034045;28;20080;-85
2022/05/22 10:34:46;;;;;;;5.65;2.90;;;;;;;26.23;32.34;101623.75;5045505;28;20054;-84
2022/05/22 10:37:37;;;;;;;9.82;2.47;;;;;;;25.92;32.40;101615.91;4983031;28;20090;-86
2022/05/22 10:40:08;;;;;;;;;;;;;;;25.92;33.04;101624.91;5030046;28;20099;-83
2022/05/22 10:42:45;;;;;;;10.63;2.60;;;;;;;25.95;32.01;101624.59;5054660;28;19908;-85
2022/05/22 10:45:22;;;;;;;11.80;2.50;;;;;;;25.93;32.47;101612.19;5048555;28;20116;-86
2022/05/22 10:47:51;;;;;;;10.27;2.50;;;;;;;26.71;32.30;101614.38;5032305;28;20045;-87
2022/05/22 10:50:27;;;;;;;7.57;2.33;;;;;;;26.92;31.11;101611.38;5032830;28;20243;-86
2022/05/22 10:52:53;;;;;;;8.00;2.50;;;;;;;27.04;31.80;101605.69;5013014;28;20069;-85
2022/05/22 10:55:27;;;;;;;9.27;2.80;;;;;;;27.02;30.80;101597.66;5023227;28;20198;-87
2022/05/22 10:58:00;;;;;;;7.72;2.67;;;;;;;26.72;29.78;101597.09;5044749;28;20041;-91
2022/05/22 11:00:26;;;;;;;7.97;2.40;;;;;;;26.52;28.97;101592.81;5042195;28;20031;-87
2022/05/22 11:02:51;;;;;;;8.82;2.60;;;;;;;26.64;31.53;101586.16;5032855;28;20102;-88
2022/05/22 11:05:22;;;;;;;6.60;2.38;;;;;;;27.04;30.34;101583.94;5016673;28;20401;-87
2022/05/22 11:07:51;;;;;;;5.95;2.50;;;;;;;26.87;30.60;101591.97;5032966;28;20576;-88
2022/05/22 11:10:38;;;;;;;9.55;3.20;;;;;;;26.26;31.00;101594.44;5016280;28;20022;-88
2022/05/22 11:13:08;;;;;;;11.55;3.20;;;;;;;26.23;32.57;101591.19;5032610;28;20091;-87
2022/05/22 11:15:44;;;;;;;6.00;2.65;;;;;;;26.40;31.92;101578.63;5033828;28;20539;-87
2022/05/22 11:18:18;;;;;;;12.88;3.05;;;;;;;26.64;34.61;101576.13;5015599;28;20500;-87
2022/05/22 11:20:49;;;;;;;9.55;3.13;;;;;;;26.28;32.72;101572.56;5017757;28;20358;-86
2022/05/22 11:23:33;;;;;;;7.20;2.97;;;;;;;26.21;31.59;101575.06;5032145;28;20029;-88
2022/05/22 11:26:16;;;;;;;5.90;2.58;;;;;;;26.06;32.46;101573.88;5031638;28;20029;-87
2022/05/22 11:29:15;;;;;;;6.70;2.42;;;;;;;26.28;31.59;101578.00;5031996;28;20039;-87
2022/05/22 11:31:47;;;;;;;7.68;2.90;;;;;;;26.17;32.67;101574.50;5032916;28;20021;-88
2022/05/22 11:34:48;;;;;;;14.10;3.38;;;;;;;26.63;32.94;101560.84;5038497;28;20037;-88
2022/05/22 11:37:19;;;;;;;6.55;2.78;;;;;;;27.02;31.78;101556.91;5012776;28;20030;-88
2022/05/22 11:40:00;;;;;;;7.70;3.03;;;;;;;26.54;30.97;101540.06;5021548;28;20035;-87
2022/05/22 11:42:32;;;;;;;6.32;2.92;;;;;;;26.45;31.57;101544.56;5032721;28;20097;-88
2022/05/22 11:45:16;;;;;;;9.45;2.35;;;;;;;26.74;32.68;101543.47;5032035;28;20033;-88